createdAt,value
2022-11-05T00:00:41.470Z,955.64
2022-11-05T00:01:41.483Z,955.65
2022-11-05T00:02:41.439Z,955.60
2022-11-05T00:03:41.536Z,955.60
2022-11-05T00:04:41.409Z,955.60
2022-11-05T00:05:41.391Z,955.58
2022-11-05T00:06:41.372Z,955.63
2022-11-05T00:07:41.359Z,955.60
2022-11-05T00:08:41.328Z,955.61
2022-11-05T00:09:41.369Z,955.61
2022-11-05T00:10:41.408Z,955.61
2022-11-05T00:11:41.301Z,955.63
2022-11-05T00:12:41.289Z,955.62
2022-11-05T00:13:41.281Z,955.63
2022-11-05T00:14:41.297Z,955.61
2022-11-05T00:15:41.425Z,955.65
2022-11-05T00:16:41.228Z,955.66
2022-11-05T00:17:41.235Z,955.64
2022-11-05T00:18:41.203Z,955.59
2022-11-05T00:19:41.848Z,955.63
2022-11-05T00:20:41.183Z,955.64
2022-11-05T00:21:41.208Z,955.68
2022-11-05T00:22:41.144Z,955.68
2022-11-05T00:23:41.165Z,955.69
2022-11-05T00:24:41.141Z,955.63
2022-11-05T00:25:41.101Z,955.71
2022-11-05T00:26:41.073Z,955.75
2022-11-05T00:27:41.261Z,955.72
2022-11-05T00:28:41.060Z,955.76
2022-11-05T00:29:41.090Z,955.77
2022-11-05T00:30:41.040Z,955.79
2022-11-05T00:31:41.050Z,955.79
2022-11-05T00:32:41.011Z,955.76
2022-11-05T00:33:41.046Z,955.75
2022-11-05T00:34:41.007Z,955.74
2022-11-05T00:35:40.957Z,955.74
2022-11-05T00:36:40.940Z,955.78
2022-11-05T00:37:44.351Z,955.79
2022-11-05T00:38:41.939Z,955.80
2022-11-05T00:39:41.335Z,955.84
2022-11-05T00:40:40.902Z,955.83
2022-11-05T00:41:40.887Z,955.83
2022-11-05T00:42:40.874Z,955.84
2022-11-05T00:43:40.902Z,955.85
2022-11-05T00:44:40.887Z,955.86
2022-11-05T00:45:40.884Z,955.86
2022-11-05T00:46:40.819Z,955.91
2022-11-05T00:47:40.837Z,955.93
2022-11-05T00:48:40.791Z,955.88
2022-11-05T00:49:40.782Z,955.91
2022-11-05T00:50:40.819Z,955.95
2022-11-05T00:51:40.742Z,955.92
2022-11-05T00:52:40.755Z,955.95
2022-11-05T00:53:40.751Z,955.95
2022-11-05T00:54:40.723Z,955.94
2022-11-05T00:55:40.686Z,955.99
2022-11-05T00:56:40.789Z,955.95
2022-11-05T00:57:40.675Z,955.94
2022-11-05T00:58:40.675Z,955.96
2022-11-05T00:59:40.685Z,956.01
2022-11-05T01:00:42.354Z,956.04
2022-11-05T01:01:40.733Z,956.09
2022-11-05T01:02:40.838Z,956.04
2022-11-05T01:03:40.871Z,956.03
2022-11-05T01:04:40.644Z,956.04
2022-11-05T01:05:41.374Z,956.08
2022-11-05T01:06:40.660Z,956.09
2022-11-05T01:07:40.579Z,956.08
2022-11-05T01:08:40.669Z,956.09
2022-11-05T01:09:40.516Z,956.08
2022-11-05T01:10:40.577Z,956.09
2022-11-05T01:11:40.469Z,956.05
2022-11-05T01:12:40.450Z,956.08
2022-11-05T01:13:40.456Z,956.10
2022-11-05T01:14:40.510Z,956.10
2022-11-05T01:15:40.410Z,956.11
2022-11-05T01:16:40.467Z,956.10
2022-11-05T01:17:40.380Z,956.13
2022-11-05T01:18:40.397Z,956.09
2022-11-05T01:19:40.398Z,956.15
2022-11-05T01:20:40.635Z,956.12
2022-11-05T01:21:40.319Z,956.16
2022-11-05T01:22:40.326Z,956.18
2022-11-05T01:23:40.287Z,956.18
2022-11-05T01:24:40.296Z,956.18
2022-11-05T01:25:40.269Z,956.22
2022-11-05T01:26:40.285Z,956.18
2022-11-05T01:27:40.243Z,956.27
2022-11-05T01:28:40.432Z,956.24
2022-11-05T01:29:40.199Z,956.29
2022-11-05T01:30:40.192Z,956.25
2022-11-05T01:31:40.169Z,956.31
2022-11-05T01:32:40.194Z,956.26
2022-11-05T01:33:40.177Z,956.27
2022-11-05T01:34:40.133Z,956.29
2022-11-05T01:35:40.157Z,956.30
2022-11-05T01:36:40.106Z,956.28
2022-11-05T01:37:40.121Z,956.29
2022-11-05T01:38:40.121Z,956.26
2022-11-05T01:39:40.058Z,956.25
2022-11-05T01:40:40.193Z,956.31
2022-11-05T01:41:40.079Z,956.32
2022-11-05T01:42:40.027Z,956.28
2022-11-05T01:43:40.057Z,956.25
2022-11-05T01:44:40.061Z,956.27
2022-11-05T01:45:39.974Z,956.32
2022-11-05T01:46:39.969Z,956.31
2022-11-05T01:47:39.952Z,956.32
2022-11-05T01:48:39.940Z,956.32
2022-11-05T01:49:39.919Z,956.35
2022-11-05T01:50:39.957Z,956.30
2022-11-05T01:51:39.895Z,956.33
2022-11-05T01:52:39.891Z,956.32
2022-11-05T01:53:39.871Z,956.30
2022-11-05T01:54:39.889Z,956.32
2022-11-05T01:55:39.849Z,956.32
2022-11-05T01:56:39.862Z,956.33
2022-11-05T01:57:39.815Z,956.40
2022-11-05T01:58:39.819Z,956.35
2022-11-05T01:59:39.782Z,956.37
2022-11-05T02:00:39.780Z,956.41
2022-11-05T02:01:39.872Z,956.39
2022-11-05T02:02:39.885Z,956.29
2022-11-05T02:03:39.753Z,956.35
2022-11-05T02:04:39.716Z,956.34
2022-11-05T02:05:39.695Z,956.36
2022-11-05T02:06:39.689Z,956.31
2022-11-05T02:07:39.672Z,956.32
2022-11-05T02:08:39.685Z,956.36
2022-11-05T02:09:39.645Z,956.34
2022-11-05T02:10:39.638Z,956.35
2022-11-05T02:11:39.618Z,956.36
2022-11-05T02:12:39.601Z,956.33
2022-11-05T02:13:39.593Z,956.35
2022-11-05T02:14:39.619Z,956.36
2022-11-05T02:15:39.561Z,956.32
2022-11-05T02:16:39.546Z,956.30
2022-11-05T02:17:39.536Z,956.33
2022-11-05T02:18:39.544Z,956.33
2022-11-05T02:19:39.525Z,956.28
2022-11-05T02:20:39.533Z,956.33
2022-11-05T02:21:39.512Z,956.33
2022-11-05T02:22:39.460Z,956.37
2022-11-05T02:23:39.469Z,956.32
2022-11-05T02:24:39.449Z,956.35
2022-11-05T02:25:39.428Z,956.33
2022-11-05T02:26:39.496Z,956.38
2022-11-05T02:27:39.394Z,956.36
2022-11-05T02:28:39.438Z,956.36
2022-11-05T02:29:39.508Z,956.34
2022-11-05T02:30:39.455Z,956.31
2022-11-05T02:31:39.447Z,956.32
2022-11-05T02:32:39.456Z,956.36
2022-11-05T02:33:39.431Z,956.33
2022-11-05T02:34:39.410Z,956.34
2022-11-05T02:35:39.369Z,956.30
2022-11-05T02:36:39.375Z,956.38
2022-11-05T02:37:39.353Z,956.35
2022-11-05T02:38:39.375Z,956.38
2022-11-05T02:39:39.355Z,956.36
2022-11-05T02:40:39.396Z,956.35
2022-11-05T02:41:39.290Z,956.34
2022-11-05T02:42:39.286Z,956.34
2022-11-05T02:43:39.259Z,956.35
2022-11-05T02:44:39.284Z,956.39
2022-11-05T02:45:39.247Z,956.41
2022-11-05T02:46:39.253Z,956.41
2022-11-05T02:47:39.206Z,956.42
2022-11-05T02:48:39.193Z,956.41
2022-11-05T02:49:39.201Z,956.41
2022-11-05T02:50:39.213Z,956.46
2022-11-05T02:51:39.173Z,956.47
2022-11-05T02:52:39.133Z,956.49
2022-11-05T02:53:39.119Z,956.48
2022-11-05T02:54:39.120Z,956.48
2022-11-05T02:55:39.095Z,956.49
2022-11-05T02:56:39.019Z,956.45
2022-11-05T02:57:38.968Z,956.48
2022-11-05T02:58:38.999Z,956.48
2022-11-05T02:59:38.956Z,956.51
2022-11-05T03:00:38.943Z,956.48
2022-11-05T03:01:39.049Z,956.59
2022-11-05T03:02:39.056Z,956.49
2022-11-05T03:03:38.892Z,956.49
2022-11-05T03:04:38.876Z,956.49
2022-11-05T03:05:38.893Z,956.54
2022-11-05T03:06:38.847Z,956.52
2022-11-05T03:07:38.834Z,956.53
2022-11-05T03:08:38.851Z,956.50
2022-11-05T03:09:38.796Z,956.48
2022-11-05T03:10:38.796Z,956.52
2022-11-05T03:11:38.832Z,956.52
2022-11-05T03:12:38.777Z,956.51
2022-11-05T03:13:38.833Z,956.49
2022-11-05T03:14:38.761Z,956.49
2022-11-05T03:15:38.737Z,956.49
2022-11-05T03:16:38.716Z,956.52
2022-11-05T03:17:38.704Z,956.53
2022-11-05T03:18:38.678Z,956.56
2022-11-05T03:19:38.672Z,956.57
2022-11-05T03:20:38.670Z,956.59
2022-11-05T03:21:38.673Z,956.61
2022-11-05T03:22:38.626Z,956.58
2022-11-05T03:23:38.609Z,956.59
2022-11-05T03:24:38.600Z,956.63
2022-11-05T03:25:38.585Z,956.65
2022-11-05T03:26:38.637Z,956.66
2022-11-05T03:27:38.574Z,956.72
2022-11-05T03:28:38.546Z,956.74
2022-11-05T03:29:38.526Z,956.69
2022-11-05T03:30:38.696Z,956.75
2022-11-05T03:31:38.558Z,956.74
2022-11-05T03:32:38.690Z,956.76
2022-11-05T03:33:38.476Z,956.75
2022-11-05T03:34:38.460Z,956.76
2022-11-05T03:35:38.444Z,956.79
2022-11-05T03:36:38.431Z,956.84
2022-11-05T03:37:38.419Z,956.79
2022-11-05T03:38:38.453Z,956.80
2022-11-05T03:39:38.396Z,956.84
2022-11-05T03:40:38.384Z,956.85
2022-11-05T03:41:38.369Z,956.86
2022-11-05T03:42:38.343Z,956.88
2022-11-05T03:43:38.382Z,956.90
2022-11-05T03:44:38.350Z,956.87
2022-11-05T03:45:38.323Z,956.93
2022-11-05T03:46:38.286Z,956.92
2022-11-05T03:47:38.278Z,956.91
2022-11-05T03:48:38.301Z,956.90
2022-11-05T03:49:38.248Z,956.96
2022-11-05T03:50:41.284Z,956.95
2022-11-05T03:51:38.228Z,956.90
2022-11-05T03:52:38.215Z,956.91
2022-11-05T03:53:38.187Z,956.97
2022-11-05T03:54:38.177Z,956.92
2022-11-05T03:55:38.173Z,957.00
2022-11-05T03:56:38.347Z,957.03
2022-11-05T03:57:38.151Z,957.01
2022-11-05T03:58:38.124Z,957.06
2022-11-05T03:59:38.111Z,957.12
2022-11-05T04:00:38.115Z,957.11
2022-11-05T04:01:38.214Z,957.11
2022-11-05T04:02:38.312Z,957.14
2022-11-05T04:03:38.054Z,957.16
2022-11-05T04:04:38.043Z,957.16
2022-11-05T04:05:38.058Z,957.16
2022-11-05T04:06:38.009Z,957.17
2022-11-05T04:07:38.046Z,957.21
2022-11-05T04:08:38.019Z,957.21
2022-11-05T04:09:37.970Z,957.17
2022-11-05T04:10:38.109Z,957.19
2022-11-05T04:11:37.937Z,957.20
2022-11-05T04:12:37.931Z,957.19
2022-11-05T04:13:37.901Z,957.21
2022-11-05T04:14:37.976Z,957.19
2022-11-05T04:15:38.565Z,957.19
2022-11-05T04:16:37.874Z,957.18
2022-11-05T04:17:37.855Z,957.20
2022-11-05T04:18:37.839Z,957.17
2022-11-05T04:19:37.828Z,957.20
2022-11-05T04:20:37.859Z,957.19
2022-11-05T04:21:37.792Z,957.22
2022-11-05T04:22:37.775Z,957.20
2022-11-05T04:23:37.762Z,957.23
2022-11-05T04:24:37.785Z,957.20
2022-11-05T04:25:37.754Z,957.21
2022-11-05T04:26:37.808Z,957.21
2022-11-05T04:27:37.726Z,957.25
2022-11-05T04:28:37.721Z,957.26
2022-11-05T04:29:37.689Z,957.31
2022-11-05T04:30:37.671Z,957.34
2022-11-05T04:31:37.854Z,957.36
2022-11-05T04:32:37.711Z,957.40
2022-11-05T04:33:37.631Z,957.35
2022-11-05T04:34:37.623Z,957.38
2022-11-05T04:35:37.662Z,957.41
2022-11-05T04:36:37.586Z,957.41
2022-11-05T04:37:37.566Z,957.42
2022-11-05T04:38:37.690Z,957.38
2022-11-05T04:39:37.539Z,957.39
2022-11-05T04:40:37.542Z,957.40
2022-11-05T04:41:37.525Z,957.40
2022-11-05T04:42:37.513Z,957.46
2022-11-05T04:43:37.495Z,957.47
2022-11-05T04:44:37.570Z,957.45
2022-11-05T04:45:37.463Z,957.50
2022-11-05T04:46:37.445Z,957.52
2022-11-05T04:47:37.428Z,957.52
2022-11-05T04:48:37.545Z,957.48
2022-11-05T04:49:37.430Z,957.50
2022-11-05T04:50:37.456Z,957.54
2022-11-05T04:51:37.383Z,957.56
2022-11-05T04:52:37.381Z,957.54
2022-11-05T04:53:37.344Z,957.54
2022-11-05T04:54:37.324Z,957.54
2022-11-05T04:55:37.320Z,957.54
2022-11-05T04:56:37.358Z,957.55
2022-11-05T04:57:37.302Z,957.54
2022-11-05T04:58:37.621Z,957.59
2022-11-05T04:59:37.275Z,957.54
2022-11-05T05:00:37.503Z,957.53
2022-11-05T05:01:37.408Z,957.52
2022-11-05T05:02:37.251Z,957.55
2022-11-05T05:03:37.294Z,957.54
2022-11-05T05:04:37.247Z,957.56
2022-11-05T05:05:37.220Z,957.58
2022-11-05T05:06:37.173Z,957.57
2022-11-05T05:07:37.152Z,957.56
2022-11-05T05:08:37.182Z,957.60
2022-11-05T05:09:37.146Z,957.62
2022-11-05T05:10:37.288Z,957.65
2022-11-05T05:11:37.114Z,957.64
2022-11-05T05:12:37.092Z,957.60
2022-11-05T05:13:37.098Z,957.63
2022-11-05T05:14:37.095Z,957.62
2022-11-05T05:15:37.071Z,957.65
2022-11-05T05:16:37.031Z,957.66
2022-11-05T05:17:37.024Z,957.67
2022-11-05T05:18:38.921Z,957.71
2022-11-05T05:19:38.029Z,957.66
2022-11-05T05:20:37.210Z,957.69
2022-11-05T05:21:36.965Z,957.70
2022-11-05T05:22:36.941Z,957.70
2022-11-05T05:23:36.933Z,957.68
2022-11-05T05:24:37.585Z,957.68
2022-11-05T05:25:36.954Z,957.70
2022-11-05T05:26:36.903Z,957.70
2022-11-05T05:27:36.873Z,957.72
2022-11-05T05:28:36.979Z,957.74
2022-11-05T05:29:36.865Z,957.70
2022-11-05T05:30:36.933Z,957.69
2022-11-05T05:31:36.863Z,957.69
2022-11-05T05:32:36.942Z,957.72
2022-11-05T05:33:36.789Z,957.76
2022-11-05T05:34:36.796Z,957.75
2022-11-05T05:35:36.778Z,957.71
2022-11-05T05:36:36.751Z,957.69
2022-11-05T05:37:36.804Z,957.74
2022-11-05T05:38:36.716Z,957.76
2022-11-05T05:39:36.744Z,957.74
2022-11-05T05:40:36.692Z,957.78
2022-11-05T05:41:36.684Z,957.69
2022-11-05T05:42:41.887Z,957.75
2022-11-05T05:43:37.858Z,957.78
2022-11-05T05:44:37.061Z,957.77
2022-11-05T05:45:36.638Z,957.79
2022-11-05T05:46:36.599Z,957.79
2022-11-05T05:47:36.649Z,957.83
2022-11-05T05:48:36.586Z,957.82
2022-11-05T05:49:36.606Z,957.80
2022-11-05T05:50:36.560Z,957.82
2022-11-05T05:51:36.537Z,957.84
2022-11-05T05:52:36.563Z,957.82
2022-11-05T05:53:36.613Z,957.84
2022-11-05T05:54:42.300Z,957.89
2022-11-05T05:55:37.527Z,957.91
2022-11-05T05:56:36.463Z,957.90
2022-11-05T05:57:36.465Z,957.94
2022-11-05T05:58:36.477Z,957.94
2022-11-05T05:59:36.431Z,957.97
2022-11-05T06:00:36.417Z,957.98
2022-11-05T06:01:36.568Z,957.97
2022-11-05T06:02:36.531Z,958.05
2022-11-05T06:03:36.384Z,958.05
2022-11-05T06:04:36.356Z,958.09
2022-11-05T06:05:36.360Z,958.07
2022-11-05T06:06:36.337Z,958.10
2022-11-05T06:07:37.549Z,958.11
2022-11-05T06:08:36.325Z,958.11
2022-11-05T06:09:36.284Z,958.10
2022-11-05T06:10:36.304Z,958.10
2022-11-05T06:11:36.267Z,958.10
2022-11-05T06:12:36.248Z,958.10
2022-11-05T06:13:36.314Z,958.14
2022-11-05T06:14:36.223Z,958.14
2022-11-05T06:15:36.303Z,958.12
2022-11-05T06:16:36.190Z,958.10
2022-11-05T06:17:36.242Z,958.16
2022-11-05T06:18:36.221Z,958.21
2022-11-05T06:19:36.245Z,958.19
2022-11-05T06:20:36.164Z,958.18
2022-11-05T06:21:36.166Z,958.20
2022-11-05T06:22:36.102Z,958.23
2022-11-05T06:23:36.485Z,958.27
2022-11-05T06:24:36.096Z,958.29
2022-11-05T06:25:41.071Z,958.28
2022-11-05T06:26:37.067Z,958.32
2022-11-05T06:27:36.037Z,958.26
2022-11-05T06:28:36.033Z,958.30
2022-11-05T06:29:36.073Z,958.35
2022-11-05T06:30:35.989Z,958.35
2022-11-05T06:31:36.008Z,958.34
2022-11-05T06:32:35.996Z,958.34
2022-11-05T06:33:36.059Z,958.37
2022-11-05T06:34:35.945Z,958.40
2022-11-05T06:35:35.920Z,958.41
2022-11-05T06:36:35.906Z,958.41
2022-11-05T06:37:35.930Z,958.42
2022-11-05T06:38:35.984Z,958.43
2022-11-05T06:39:35.877Z,958.43
2022-11-05T06:40:35.845Z,958.43
2022-11-05T06:41:56.880Z,958.50
2022-11-05T06:42:36.859Z,958.44
2022-11-05T06:43:35.857Z,958.47
2022-11-05T06:44:35.799Z,958.47
2022-11-05T06:45:35.792Z,958.49
2022-11-05T06:46:35.783Z,958.48
2022-11-05T06:47:35.773Z,958.53
2022-11-05T06:48:35.938Z,958.51
2022-11-05T06:49:35.729Z,958.55
2022-11-05T06:50:35.737Z,958.56
2022-11-05T06:51:35.700Z,958.53
2022-11-05T06:52:40.785Z,958.58
2022-11-05T06:53:36.731Z,958.58
2022-11-05T06:54:35.654Z,958.60
2022-11-05T06:55:35.701Z,958.62
2022-11-05T06:56:35.644Z,958.63
2022-11-05T06:57:35.632Z,958.65
2022-11-05T06:58:35.703Z,958.68
2022-11-05T06:59:35.654Z,958.67
2022-11-05T07:00:35.607Z,958.69
2022-11-05T07:01:35.634Z,958.66
2022-11-05T07:02:35.661Z,958.69
2022-11-05T07:03:35.535Z,958.69
2022-11-05T07:04:35.585Z,958.72
2022-11-05T07:05:35.602Z,958.73
2022-11-05T07:06:37.120Z,958.77
2022-11-05T07:07:35.569Z,958.76
2022-11-05T07:08:35.565Z,958.86
2022-11-05T07:09:35.459Z,958.84
2022-11-05T07:10:35.461Z,958.81
2022-11-05T07:11:35.561Z,958.87
2022-11-05T07:12:35.466Z,958.88
2022-11-05T07:13:35.496Z,958.86
2022-11-05T07:14:35.477Z,958.91
2022-11-05T07:15:35.451Z,958.93
2022-11-05T07:16:35.455Z,958.96
2022-11-05T07:17:35.473Z,958.94
2022-11-05T07:18:35.460Z,959.00
2022-11-05T07:19:35.364Z,959.00
2022-11-05T07:20:35.497Z,958.98
2022-11-05T07:21:35.294Z,959.03
2022-11-05T07:22:35.257Z,959.04
2022-11-05T07:23:35.308Z,959.07
2022-11-05T07:24:35.233Z,959.06
2022-11-05T07:25:35.334Z,959.09
2022-11-05T07:26:35.228Z,959.09
2022-11-05T07:27:35.232Z,959.13
2022-11-05T07:28:35.192Z,959.13
2022-11-05T07:29:35.200Z,959.20
2022-11-05T07:30:35.170Z,959.17
2022-11-05T07:31:35.143Z,959.23
2022-11-05T07:32:35.186Z,959.26
2022-11-05T07:33:36.698Z,959.27
2022-11-05T07:34:35.413Z,959.28
2022-11-05T07:35:35.133Z,959.27
2022-11-05T07:36:35.101Z,959.28
2022-11-05T07:37:35.106Z,959.32
2022-11-05T07:38:35.045Z,959.29
2022-11-05T07:39:35.028Z,959.31
2022-11-05T07:40:35.066Z,959.33
2022-11-05T07:41:35.028Z,959.38
2022-11-05T07:42:35.018Z,959.40
2022-11-05T07:43:35.043Z,959.37
2022-11-05T07:44:34.955Z,959.42
2022-11-05T07:45:34.945Z,959.39
2022-11-05T07:46:34.946Z,959.40
2022-11-05T07:47:34.948Z,959.44
2022-11-05T07:48:34.904Z,959.44
2022-11-05T07:49:34.883Z,959.45
2022-11-05T07:50:34.902Z,959.51
2022-11-05T07:51:34.880Z,959.50
2022-11-05T07:52:34.877Z,959.50
2022-11-05T07:53:35.101Z,959.52
2022-11-05T07:54:34.823Z,959.49
2022-11-05T07:55:34.824Z,959.48
2022-11-05T07:56:34.811Z,959.49
2022-11-05T07:57:34.788Z,959.52
2022-11-05T07:58:34.760Z,959.53
2022-11-05T07:59:34.804Z,959.58
2022-11-05T08:00:34.794Z,959.55
2022-11-05T08:01:34.936Z,959.53
2022-11-05T08:02:34.913Z,959.57
2022-11-05T08:03:34.819Z,959.58
2022-11-05T08:04:34.696Z,959.61
2022-11-05T08:05:34.700Z,959.61
2022-11-05T08:06:34.687Z,959.63
2022-11-05T08:07:34.638Z,959.60
2022-11-05T08:08:34.647Z,959.62
2022-11-05T08:09:34.627Z,959.66
2022-11-05T08:10:34.588Z,959.67
2022-11-05T08:11:34.628Z,959.65
2022-11-05T08:12:34.636Z,959.68
2022-11-05T08:13:34.584Z,959.70
2022-11-05T08:14:34.547Z,959.72
2022-11-05T08:15:34.547Z,959.70
2022-11-05T08:16:34.574Z,959.75
2022-11-05T08:17:34.535Z,959.74
2022-11-05T08:18:34.477Z,959.68
2022-11-05T08:19:34.477Z,959.69
2022-11-05T08:20:34.451Z,959.75
2022-11-05T08:21:34.452Z,959.76
2022-11-05T08:22:34.468Z,959.74
2022-11-05T08:23:34.452Z,959.74
2022-11-05T08:24:34.414Z,959.78
2022-11-05T08:25:34.403Z,959.80
2022-11-05T08:26:34.376Z,959.81
2022-11-05T08:27:34.386Z,959.76
2022-11-05T08:28:34.364Z,959.80
2022-11-05T08:29:34.382Z,959.79
2022-11-05T08:30:34.319Z,959.79
2022-11-05T08:31:34.304Z,959.81
2022-11-05T08:32:34.342Z,959.75
2022-11-05T08:33:34.278Z,959.76
2022-11-05T08:34:34.251Z,959.78
2022-11-05T08:35:34.488Z,959.78
2022-11-05T08:36:34.231Z,959.79
2022-11-05T08:37:34.234Z,959.81
2022-11-05T08:38:34.202Z,959.77
2022-11-05T08:39:34.196Z,959.83
2022-11-05T08:40:34.177Z,959.83
2022-11-05T08:41:34.208Z,959.81
2022-11-05T08:42:34.168Z,959.83
2022-11-05T08:43:34.147Z,959.80
2022-11-05T08:44:34.111Z,959.81
2022-11-05T08:45:34.119Z,959.84
2022-11-05T08:46:38.917Z,959.79
2022-11-05T08:47:35.193Z,959.85
2022-11-05T08:48:34.061Z,959.87
2022-11-05T08:49:34.060Z,959.87
2022-11-05T08:50:34.110Z,959.86
2022-11-05T08:51:34.065Z,959.92
2022-11-05T08:52:34.026Z,959.85
2022-11-05T08:53:34.074Z,959.88
2022-11-05T08:54:33.988Z,959.89
2022-11-05T08:55:33.983Z,959.95
2022-11-05T08:56:33.961Z,959.89
2022-11-05T08:57:33.961Z,959.96
2022-11-05T08:58:33.937Z,959.97
2022-11-05T08:59:34.009Z,960.01
2022-11-05T09:00:33.901Z,959.96
2022-11-05T09:01:34.238Z,960.00
2022-11-05T09:02:34.679Z,960.05
2022-11-05T09:03:33.862Z,960.03
2022-11-05T09:04:33.834Z,960.02
2022-11-05T09:05:33.901Z,960.07
2022-11-05T09:06:33.821Z,960.02
2022-11-05T09:07:33.813Z,960.09
2022-11-05T09:08:33.807Z,960.08
2022-11-05T09:09:33.771Z,960.04
2022-11-05T09:10:33.772Z,960.09
2022-11-05T09:11:57.476Z,960.13
2022-11-05T09:12:34.730Z,960.12
2022-11-05T09:13:33.728Z,960.16
2022-11-05T09:14:33.702Z,960.17
2022-11-05T09:15:33.707Z,960.19
2022-11-05T09:16:33.723Z,960.19
2022-11-05T09:17:33.706Z,960.16
2022-11-05T09:18:33.716Z,960.18
2022-11-05T09:19:36.686Z,960.20
2022-11-05T09:20:34.662Z,960.17
2022-11-05T09:21:33.606Z,960.19
2022-11-05T09:22:33.577Z,960.17
2022-11-05T09:23:33.648Z,960.15
2022-11-05T09:24:33.557Z,960.14
2022-11-05T09:25:33.642Z,960.17
2022-11-05T09:26:33.532Z,960.17
2022-11-05T09:27:33.514Z,960.16
2022-11-05T09:28:33.640Z,960.21
2022-11-05T09:29:33.545Z,960.21
2022-11-05T09:30:33.509Z,960.16
2022-11-05T09:31:33.462Z,960.23
2022-11-05T09:32:33.483Z,960.20
2022-11-05T09:33:33.444Z,960.25
2022-11-05T09:34:33.434Z,960.22
2022-11-05T09:35:33.648Z,960.23
2022-11-05T09:36:33.408Z,960.25
2022-11-05T09:37:33.381Z,960.24
2022-11-05T09:38:33.365Z,960.26
2022-11-05T09:39:33.358Z,960.28
2022-11-05T09:40:33.332Z,960.27
2022-11-05T09:41:33.541Z,960.29
2022-11-05T09:42:33.340Z,960.29
2022-11-05T09:43:33.333Z,960.30
2022-11-05T09:44:33.285Z,960.34
2022-11-05T09:45:33.297Z,960.32
2022-11-05T09:46:33.302Z,960.40
2022-11-05T09:47:33.311Z,960.37
2022-11-05T09:48:33.225Z,960.38
2022-11-05T09:49:33.229Z,960.40
2022-11-05T09:50:33.237Z,960.46
2022-11-05T09:51:33.303Z,960.48
2022-11-05T09:52:33.192Z,960.50
2022-11-05T09:53:33.198Z,960.47
2022-11-05T09:54:33.187Z,960.56
2022-11-05T09:55:33.151Z,960.52
2022-11-05T09:56:33.232Z,960.53
2022-11-05T09:57:33.103Z,960.52
2022-11-05T09:58:33.134Z,960.54
2022-11-05T09:59:33.191Z,960.56
2022-11-05T10:00:43.972Z,960.56
2022-11-05T10:01:33.331Z,960.51
2022-11-05T10:02:33.160Z,960.57
2022-11-05T10:03:33.058Z,960.58
2022-11-05T10:04:33.020Z,960.59
2022-11-05T10:05:34.518Z,960.60
2022-11-05T10:06:33.017Z,960.58
2022-11-05T10:07:32.996Z,960.61
2022-11-05T10:08:32.955Z,960.62
2022-11-05T10:09:32.953Z,960.62
2022-11-05T10:10:37.801Z,960.63
2022-11-05T10:11:33.957Z,960.63
2022-11-05T10:12:32.889Z,960.60
2022-11-05T10:13:32.872Z,960.55
2022-11-05T10:14:32.968Z,960.57
2022-11-05T10:15:32.891Z,960.60
2022-11-05T10:16:33.514Z,960.57
2022-11-05T10:17:38.764Z,960.57
2022-11-05T10:18:34.331Z,960.58
2022-11-05T10:19:32.806Z,960.58
2022-11-05T10:20:32.824Z,960.58
2022-11-05T10:22:04.450Z,960.61
2022-11-05T10:22:33.861Z,960.61
2022-11-05T10:23:32.732Z,960.65
2022-11-05T10:24:32.709Z,960.66
2022-11-05T10:25:33.063Z,960.70
2022-11-05T10:26:32.842Z,960.70
2022-11-05T10:27:32.919Z,960.70
2022-11-05T10:28:32.721Z,960.69
2022-11-05T10:29:32.651Z,960.69
2022-11-05T10:30:32.901Z,960.67
2022-11-05T10:31:35.400Z,960.74
2022-11-05T10:32:32.651Z,960.68
2022-11-05T10:33:32.621Z,960.75
2022-11-05T10:34:32.657Z,960.77
2022-11-05T10:35:32.572Z,960.73
2022-11-05T10:36:32.577Z,960.73
2022-11-05T10:37:34.973Z,960.72
2022-11-05T10:38:32.537Z,960.71
2022-11-05T10:39:32.504Z,960.72
2022-11-05T10:40:32.548Z,960.76
2022-11-05T10:41:32.492Z,960.73
2022-11-05T10:42:32.505Z,960.76
2022-11-05T10:43:32.623Z,960.78
2022-11-05T10:44:32.441Z,960.78
2022-11-05T10:45:32.474Z,960.76
2022-11-05T10:46:32.494Z,960.78
2022-11-05T10:47:32.412Z,960.81
2022-11-05T10:48:32.395Z,960.79
2022-11-05T10:49:32.371Z,960.80
2022-11-05T10:50:32.378Z,960.75
2022-11-05T10:51:32.344Z,960.82
2022-11-05T10:52:32.431Z,960.78
2022-11-05T10:53:32.334Z,960.82
2022-11-05T10:54:32.334Z,960.81
2022-11-05T10:55:32.317Z,960.77
2022-11-05T10:56:32.286Z,960.80
2022-11-05T10:57:32.294Z,960.80
2022-11-05T10:58:32.377Z,960.80
2022-11-05T10:59:32.224Z,960.81
2022-11-05T11:00:32.225Z,960.83
2022-11-05T11:01:32.336Z,960.81
2022-11-05T11:02:32.489Z,960.83
2022-11-05T11:03:32.189Z,960.81
2022-11-05T11:04:37.418Z,960.82
2022-11-05T11:05:33.148Z,960.80
2022-11-05T11:06:32.157Z,960.80
2022-11-05T11:07:32.116Z,960.82
2022-11-05T11:08:32.117Z,960.77
2022-11-05T11:09:32.167Z,960.84
2022-11-05T11:10:32.177Z,960.81
2022-11-05T11:11:32.064Z,960.81
2022-11-05T11:12:35.629Z,960.82
2022-11-05T11:13:33.045Z,960.83
2022-11-05T11:14:32.072Z,960.84
2022-11-05T11:15:32.039Z,960.82
2022-11-05T11:16:32.234Z,960.85
2022-11-05T11:17:32.019Z,960.82
2022-11-05T11:18:35.957Z,960.85
2022-11-05T11:19:32.938Z,960.81
2022-11-05T11:20:32.190Z,960.80
2022-11-05T11:21:32.009Z,960.78
2022-11-05T11:22:32.041Z,960.80
2022-11-05T11:23:31.900Z,960.78
2022-11-05T11:24:33.565Z,960.81
2022-11-05T11:25:31.881Z,960.81
2022-11-05T11:26:31.927Z,960.80
2022-11-05T11:27:32.079Z,960.82
2022-11-05T11:28:31.892Z,960.80
2022-11-05T11:29:31.849Z,960.83
2022-11-05T11:30:32.428Z,960.88
2022-11-05T11:31:32.737Z,960.84
2022-11-05T11:32:31.875Z,960.84
2022-11-05T11:33:31.745Z,960.84
2022-11-05T11:34:31.779Z,960.82
2022-11-05T11:35:31.726Z,960.83
2022-11-05T11:36:31.758Z,960.85
2022-11-05T11:37:31.846Z,960.84
2022-11-05T11:38:31.680Z,960.83
2022-11-05T11:39:31.679Z,960.84
2022-11-05T11:40:31.695Z,960.82
2022-11-05T11:41:31.643Z,960.79
2022-11-05T11:42:31.828Z,960.81
2022-11-05T11:43:31.761Z,960.84
2022-11-05T11:44:31.613Z,960.85
2022-11-05T11:45:31.587Z,960.80
2022-11-05T11:46:31.628Z,960.82
2022-11-05T11:47:31.556Z,960.78
2022-11-05T11:48:31.576Z,960.78
2022-11-05T11:49:31.547Z,960.79
2022-11-05T11:50:31.529Z,960.78
2022-11-05T11:51:31.503Z,960.77
2022-11-05T11:52:31.533Z,960.78
2022-11-05T11:53:31.470Z,960.79
2022-11-05T11:54:31.470Z,960.79
2022-11-05T11:55:31.455Z,960.80
2022-11-05T11:56:31.446Z,960.79
2022-11-05T11:57:31.464Z,960.79
2022-11-05T11:58:31.442Z,960.77
2022-11-05T12:00:01.993Z,960.76
2022-11-05T12:00:32.381Z,960.78
2022-11-05T12:01:31.430Z,960.79
2022-11-05T12:02:31.458Z,960.75
2022-11-05T12:03:31.387Z,960.79
2022-11-05T12:04:31.359Z,960.79
2022-11-05T12:05:31.309Z,960.84
2022-11-05T12:06:31.292Z,960.82
2022-11-05T12:07:31.283Z,960.76
2022-11-05T12:08:31.271Z,960.78
2022-11-05T12:09:31.261Z,960.78
2022-11-05T12:10:31.512Z,960.81
2022-11-05T12:11:31.233Z,960.75
2022-11-05T12:12:31.236Z,960.78
2022-11-05T12:13:31.219Z,960.76
2022-11-05T12:14:31.200Z,960.81
2022-11-05T12:15:31.186Z,960.73
2022-11-05T12:16:31.343Z,960.76
2022-11-05T12:17:31.348Z,960.75
2022-11-05T12:18:31.127Z,960.71
2022-11-05T12:19:31.143Z,960.74
2022-11-05T12:20:31.119Z,960.73
2022-11-05T12:21:51.400Z,960.73
2022-11-05T12:22:33.074Z,960.73
2022-11-05T12:23:31.109Z,960.71
2022-11-05T12:24:31.067Z,960.72
2022-11-05T12:25:31.079Z,960.71
2022-11-05T12:26:31.031Z,960.67
2022-11-05T12:27:31.077Z,960.65
2022-11-05T12:28:31.282Z,960.68